AirNav   Air Wisconsin Up To $57,000 Bonus
 
 523 users online  

WS67 Vietmeier Airport
Herbster, Wisconsin, USA

GOING TO HERBSTER?


FAA INFORMATION EFFECTIVE 07 NOVEMBER 2019

Location

FAA Identifier: WS67
Lat/Long: 46-47-59.7620N 091-12-30.6660W
46-47.996033N 091-12.511100W
46.7999339,-91.2085183
(estimated)
Elevation: 795 ft. / 242 m (estimated)
Variation: 01E (1990)
From city: 3 miles SE of HERBSTER, WI
Time zone: UTC -6 (UTC -5 during Daylight Saving Time)
Zip code: 54844

Airport Operations

Airport use: Private use. Permission required prior to landing
Activation date: 03/1992
Control tower: no
ARTCC: MINNEAPOLIS CENTER
FSS: GREEN BAY FLIGHT SERVICE STATION
Attendance: UNATNDD
Wind indicator: yes
Segmented circle: no

Airport Communications

WX AWOS-3PT at 4R5 (18 nm E): 119.375 (715-747-5519)
WX ASOS at ASX (19 nm SE): 126.775 (715-682-5541)

Nearby radio navigation aids

NDB name  Hdg/Dist  Freq  Var  ID
SILVER BAY163/28.335000EBFW -... ..-. .--

Airport Services

Runway Information

Runway 16/34

Dimensions: 2000 x 80 ft. / 610 x 24 m
Surface: turf
RUNWAY 16  RUNWAY 34
Traffic pattern: leftleft
Displaced threshold: 700 ft.700 ft.
Obstructions: 40 ft. trees, 100 ft. from runway40 ft. trees, 100 ft. from runway

Airport Ownership and Management from official FAA records

Ownership: Privately-owned
Owner: WALDEMAR J. VIETMEIER
7333 NICOLLET AVE SO
RICHFIELD, MN 55423
Phone 612-866-0237
Manager: WALDEMAR J. VIETMEIER
7333 NICOLLET AVE SO
RICKFIELD, MN 55423
Phone 612-866-0237

Airport Operational Statistics

Aircraft based on the field: 1
Single engine airplanes: 1
    

Additional Remarks

FOR CD CTC MINNEAPOLIS ARTCC AT 651-463-5588.

Instrument Procedures

There are no published instrument procedures at WS67.

Some nearby airports with instrument procedures:

4R5 - Major Gilbert Field Airport (18 nm E)
KASX - John F Kennedy Memorial Airport (19 nm SE)
KTWM - Richard B Helgeson Airport (27 nm NW)
3CU - Cable Union Airport (36 nm S)
KSUW - Richard I Bong Airport (37 nm W)
 
Loc | Ops | Rwys | IFR | FBO | Links
Com | Nav | Svcs | Stats | Notes
Area around WS67 (Vietmeier Airport)
 
Road maps at: MapQuest Bing Google
 
Aerial photo
No photo
 
Sectional chart

 
Airport distance calculator
Flying to Vietmeier Airport? Find the distance to fly.

From to WS67

Sunrise and sunset
Times for 22-Nov-2019
 Local
(UTC-6)
 Zulu
(UTC)
Morning civil twilight06:4512:45
Sunrise07:1913:19
Sunset16:2322:23
Evening civil twilight16:5722:57

Current date and time
Zulu (UTC)  22-Nov-2019 08:59:51
Local (UTC-6)  22-Nov-2019 02:59:51
 
METAR
K4R5 
18nm E 
220835Z AUTO 29006KT 10SM OVC023 M04/M07 A3015 RMK AO2 T10451072
KASX 
19nm SE 
220853Z AUTO 27007KT 10SM CLR M07/M08 A3014 RMK AO2 SLP221 T10671083 50004
KBFW 
25nm N 
220835Z AUTO 30005KT 10SM OVC016 M08/M10 A3012 RMK AO2
KTWM 
26nm NW 
220855Z AUTO 29005KT 10SM OVC013 M08/M13 A3013 RMK AO2
KDYT 
34nm W 
220835Z AUTO 27012KT 10SM OVC050 M06/M09 A3019 RMK AO2
TAF
KDLH 
41nm W 
220529Z 2206/2306 32008KT P6SM VCSH BKN012 FM221000 30008KT P6SM BKN025 FM221300 28007KT P6SM SCT090 FM230300 24010G18KT P6SM FEW250 WS020/26045KT
KHYR 
48nm S 
220529Z 2206/2306 VRB03KT P6SM VCSH OVC015 FM221000 VRB04KT P6SM SCT025 BKN080 FM221500 VRB04KT P6SM SCT025 SCT100 FM230300 22008KT P6SM SKC
KIWD 
48nm E 
220526Z 2206/2306 30010KT P6SM VCSH OVC013 TEMPO 2206/2209 SCT013 BKN025 FM220900 29008KT P6SM BKN010 FM221400 25008KT P6SM SCT200 FM222000 23012G20KT P6SM FEW250
NOTAMs
Click for the latest NOTAMs
NOTAMs are issued by the DoD/FAA and will open in a separate window not controlled by AirNav.

 

 
 

Would you like to see your business listed on this page?

 If your business provides an interesting product or service to pilots, flight crews, aircraft, or users of the Vietmeier Airport, you should consider listing it here.  To start the listing process, click on the button below
 
Add a business
 

Other Pages about Vietmeier Airport

Update a link
 
Copyright © AirNav, LLC. All rights reserved. Privacy Policy  Contact